createdAt,value
2022-11-23T00:04:47.151Z,47.15
2022-11-23T00:09:48.691Z,50.90
2022-11-23T00:14:50.244Z,46.25
2022-11-23T00:19:51.858Z,47.22
2022-11-23T00:24:53.437Z,47.60
2022-11-23T00:29:55.055Z,47.47
2022-11-23T00:34:56.598Z,47.53
2022-11-23T00:39:58.148Z,49.83
2022-11-23T00:44:59.710Z,48.55
2022-11-23T00:50:01.293Z,47.50
2022-11-23T00:55:02.984Z,47.13
2022-11-23T01:00:06.827Z,47.88
2022-11-23T01:05:08.785Z,45.65
2022-11-23T01:10:10.357Z,46.08
2022-11-23T01:15:11.898Z,46.58
2022-11-23T01:20:13.479Z,45.83
2022-11-23T01:25:15.038Z,44.85
2022-11-23T01:30:16.897Z,44.55
2022-11-23T01:35:18.491Z,44.05
2022-11-23T01:40:20.223Z,43.95
2022-11-23T01:45:36.224Z,44.50
2022-11-23T01:50:38.674Z,40.70
2022-11-23T01:55:40.585Z,41.85
2022-11-23T02:00:42.500Z,40.90
2022-11-23T02:05:49.301Z,41.78
2022-11-23T02:10:50.926Z,42.00
2022-11-23T02:15:54.219Z,41.38
2022-11-23T02:21:01.322Z,41.00
2022-11-23T02:26:08.128Z,40.17
2022-11-23T02:31:09.864Z,41.97
2022-11-23T02:36:44.538Z,41.72
2022-11-23T02:41:54.921Z,38.42
2022-11-23T02:46:57.917Z,39.33
2022-11-23T02:51:59.699Z,39.78
2022-11-23T02:57:01.278Z,38.78
2022-11-23T03:02:05.058Z,38.60
2022-11-23T03:07:06.672Z,36.97
2022-11-23T03:12:08.435Z,36.97
2022-11-23T03:17:10.046Z,36.47
2022-11-23T03:22:11.768Z,35.53
2022-11-23T03:27:13.352Z,35.30
2022-11-23T03:32:14.990Z,34.08
2022-11-23T03:37:16.554Z,34.28
2022-11-23T03:42:18.143Z,34.83
2022-11-23T03:47:19.720Z,35.60
2022-11-23T03:52:21.296Z,34.55
2022-11-23T03:57:22.884Z,32.53
2022-11-23T04:02:24.710Z,33.08
2022-11-23T04:07:26.282Z,31.85
2022-11-23T04:12:28.090Z,33.25
2022-11-23T04:17:29.664Z,33.65
2022-11-23T04:22:31.432Z,33.08
2022-11-23T04:27:33.057Z,32.75
2022-11-23T04:32:34.623Z,32.13
2022-11-23T04:37:36.176Z,33.95
2022-11-23T04:42:37.748Z,34.83
2022-11-23T04:47:39.412Z,33.15
2022-11-23T04:52:40.956Z,33.08
2022-11-23T04:57:42.479Z,33.40
2022-11-23T05:02:45.153Z,34.65
2022-11-23T05:07:46.762Z,34.28
2022-11-23T05:12:48.364Z,32.70
2022-11-23T05:17:49.941Z,32.13
2022-11-23T05:22:51.474Z,34.92
2022-11-23T05:27:53.095Z,34.60
2022-11-23T05:32:54.686Z,33.33
2022-11-23T05:37:56.455Z,33.20
2022-11-23T05:42:59.051Z,33.35
2022-11-23T05:48:00.631Z,32.20
2022-11-23T05:53:02.399Z,32.78
2022-11-23T05:58:03.947Z,33.28
2022-11-23T06:03:05.530Z,32.55
2022-11-23T06:08:07.096Z,32.20
2022-11-23T06:13:08.660Z,31.65
2022-11-23T06:18:10.297Z,32.45
2022-11-23T06:23:11.854Z,31.55
2022-11-23T06:28:13.451Z,32.30
2022-11-23T06:33:15.009Z,32.13
2022-11-23T06:38:16.598Z,32.17
2022-11-23T06:43:18.255Z,30.77
2022-11-23T06:48:19.823Z,31.42
2022-11-23T06:53:21.373Z,30.67
2022-11-23T06:58:22.950Z,30.70
2022-11-23T07:03:24.852Z,30.00
2022-11-23T07:08:27.526Z,31.35
2022-11-23T07:13:29.184Z,30.58
2022-11-23T07:18:30.834Z,32.42
2022-11-23T07:23:32.438Z,32.50
2022-11-23T07:28:34.070Z,31.10
2022-11-23T07:33:35.696Z,32.22
2022-11-23T07:38:37.305Z,30.88
2022-11-23T07:43:38.900Z,30.20
2022-11-23T07:48:40.437Z,31.40
2022-11-23T07:53:42.207Z,32.28
2022-11-23T07:58:43.780Z,31.65
2022-11-23T08:03:46.594Z,31.58
2022-11-23T08:08:48.310Z,32.22
2022-11-23T08:13:49.906Z,33.13
2022-11-23T08:18:51.527Z,32.20
2022-11-23T08:23:53.073Z,32.05
2022-11-23T08:28:54.652Z,32.70
2022-11-23T08:34:00.299Z,33.90
2022-11-23T08:39:05.181Z,31.43
2022-11-23T08:44:09.812Z,31.50
2022-11-23T08:49:11.396Z,34.15
2022-11-23T08:54:12.974Z,32.25
2022-11-23T08:59:14.549Z,32.00
2022-11-23T09:04:20.480Z,30.42
2022-11-23T09:09:22.756Z,32.03
2022-11-23T09:14:24.772Z,32.08
2022-11-23T09:19:26.531Z,33.75
2022-11-23T09:24:28.269Z,32.05
2022-11-23T09:29:29.899Z,33.17
2022-11-23T09:34:31.735Z,32.72
2022-11-23T09:39:33.559Z,32.85
2022-11-23T09:44:53.698Z,31.92
2022-11-23T09:50:09.302Z,32.38
2022-11-23T09:55:36.850Z,31.23
2022-11-23T10:00:47.800Z,29.92
2022-11-23T10:06:19.647Z,30.63
2022-11-23T10:11:43.932Z,30.05
2022-11-23T10:17:27.080Z,30.58
2022-11-23T10:22:42.903Z,31.15
2022-11-23T10:27:47.780Z,32.30
2022-11-23T10:33:21.897Z,31.23
2022-11-23T10:38:27.090Z,30.90
2022-11-23T10:43:34.938Z,24.98
2022-11-23T10:48:37.020Z,29.60
2022-11-23T10:53:38.846Z,24.85
2022-11-23T10:58:45.700Z,34.40
2022-11-23T11:03:47.273Z,28.50
2022-11-23T11:08:51.566Z,29.17
2022-11-23T11:14:16.909Z,29.35
2022-11-23T11:19:25.878Z,27.80
2022-11-23T11:24:39.969Z,28.13
2022-11-23T11:29:44.505Z,24.80
2022-11-23T11:34:52.480Z,27.65
2022-11-23T11:40:30.060Z,27.00
2022-11-23T11:45:36.860Z,29.23
2022-11-23T11:50:58.451Z,29.00
2022-11-23T11:56:40.456Z,28.77
2022-11-23T12:01:47.760Z,28.55
2022-11-23T12:06:56.970Z,29.15
2022-11-23T12:11:58.895Z,28.50
2022-11-23T12:17:32.839Z,27.52
2022-11-23T12:22:43.723Z,25.95
2022-11-23T12:27:51.462Z,27.52
2022-11-23T12:33:01.965Z,26.65
2022-11-23T12:38:27.846Z,27.92
2022-11-23T12:43:52.753Z,27.63
2022-11-23T12:49:13.354Z,28.15
2022-11-23T12:54:35.394Z,27.13
2022-11-23T12:59:46.320Z,25.92
2022-11-23T13:04:59.766Z,24.60
2022-11-23T13:10:21.169Z,26.20
2022-11-23T13:15:38.882Z,26.25
2022-11-23T13:21:19.115Z,28.85
2022-11-23T13:26:23.683Z,27.77
2022-11-23T13:31:36.267Z,28.02
2022-11-23T13:37:11.568Z,26.70
2022-11-23T13:42:05.929Z,29.15
2022-11-23T13:47:27.743Z,29.33
2022-11-23T13:52:31.211Z,29.13
2022-11-23T13:57:33.343Z,30.42
2022-11-23T14:02:34.971Z,29.65
2022-11-23T14:07:47.095Z,29.75
2022-11-23T14:12:56.951Z,28.50
2022-11-23T14:18:20.064Z,28.55
2022-11-23T14:23:46.355Z,27.80
2022-11-23T14:29:06.251Z,26.02
2022-11-23T14:34:37.916Z,26.42
2022-11-23T14:39:56.332Z,29.45
2022-11-23T14:45:05.104Z,27.48
2022-11-23T14:50:20.192Z,27.38
2022-11-23T14:55:24.985Z,27.80
2022-11-23T15:00:36.387Z,27.73
2022-11-23T15:05:40.026Z,28.15
2022-11-23T15:11:03.042Z,28.23
2022-11-23T15:16:05.267Z,27.67
2022-11-23T15:21:23.886Z,28.23
2022-11-23T15:32:14.431Z,28.33
2022-11-23T15:37:14.595Z,29.02
2022-11-23T15:42:18.998Z,29.88
2022-11-23T15:47:27.790Z,29.80
2022-11-23T15:52:35.839Z,31.73
2022-11-23T15:57:39.649Z,32.22
2022-11-23T16:02:42.446Z,32.30
2022-11-23T16:07:59.864Z,34.65
2022-11-23T16:13:03.978Z,34.70
2022-11-23T16:18:19.906Z,35.58
2022-11-23T16:23:27.566Z,37.00
2022-11-23T16:28:36.553Z,36.83
2022-11-23T16:33:38.105Z,35.83
2022-11-23T16:38:39.639Z,37.63
2022-11-23T16:43:41.232Z,39.05
2022-11-23T16:48:42.846Z,39.33
2022-11-23T16:59:15.575Z,37.92
2022-11-23T17:04:17.273Z,36.90
2022-11-23T17:09:18.887Z,36.65
2022-11-23T17:14:24.129Z,36.53
2022-11-23T17:19:28.238Z,36.60
2022-11-23T17:24:29.957Z,36.47
2022-11-23T17:29:32.378Z,38.00
2022-11-23T17:34:34.800Z,36.85
2022-11-23T17:39:36.549Z,35.97
2022-11-23T17:44:38.802Z,35.88
2022-11-23T17:49:40.560Z,35.08
2022-11-23T17:54:42.128Z,36.47
2022-11-23T17:59:43.920Z,35.80
2022-11-23T18:04:46.582Z,37.83
2022-11-23T18:09:48.992Z,36.63
2022-11-23T18:14:50.532Z,35.45
2022-11-23T18:19:52.163Z,34.95
2022-11-23T18:24:53.726Z,33.85
2022-11-23T18:29:55.683Z,36.83
2022-11-23T18:34:57.354Z,36.30
2022-11-23T18:39:58.885Z,39.08
2022-11-23T18:45:01.259Z,38.97
2022-11-23T18:50:06.492Z,37.88
2022-11-23T18:55:08.538Z,37.55
2022-11-23T19:00:12.570Z,40.25
2022-11-23T19:05:14.161Z,38.60
2022-11-23T19:10:16.159Z,38.25
2022-11-23T19:15:17.908Z,39.75
2022-11-23T19:20:21.430Z,40.45
2022-11-23T19:25:23.081Z,40.65
2022-11-23T19:30:24.633Z,41.60
2022-11-23T19:35:26.179Z,40.42
2022-11-23T19:40:27.726Z,41.47
2022-11-23T19:45:29.829Z,41.45
2022-11-23T19:50:31.378Z,42.25
2022-11-23T19:55:33.012Z,41.40
2022-11-23T20:00:34.569Z,42.10
2022-11-23T20:05:36.172Z,44.35
2022-11-23T20:10:37.764Z,43.88
2022-11-23T20:15:39.402Z,45.70
2022-11-23T20:20:45.946Z,47.80
2022-11-23T20:25:49.057Z,47.38
2022-11-23T20:30:51.620Z,46.58
2022-11-23T20:35:53.279Z,46.45
2022-11-23T20:40:54.851Z,45.15
2022-11-23T20:45:58.498Z,46.72
2022-11-23T20:51:00.063Z,44.63
2022-11-23T20:56:12.822Z,43.72
2022-11-23T21:01:18.738Z,41.30
2022-11-23T21:06:21.559Z,42.08
2022-11-23T21:11:46.561Z,41.13
2022-11-23T21:16:53.478Z,41.60
2022-11-23T21:21:56.823Z,40.80
2022-11-23T21:26:58.386Z,39.03
2022-11-23T21:32:03.571Z,39.90
2022-11-23T21:37:05.129Z,37.25
2022-11-23T21:42:07.384Z,36.72
2022-11-23T21:47:09.459Z,36.47
2022-11-23T21:52:11.014Z,35.90
2022-11-23T21:57:12.560Z,35.45
2022-11-23T22:08:29.498Z,34.55
2022-11-23T22:13:36.745Z,34.72
2022-11-23T22:18:39.297Z,34.50
2022-11-23T22:23:41.510Z,33.33
2022-11-23T22:28:45.833Z,34.92
2022-11-23T22:33:48.519Z,33.28
2022-11-23T22:39:02.744Z,33.38
2022-11-23T22:44:10.312Z,32.83
2022-11-23T22:49:12.431Z,30.60
2022-11-23T22:54:14.168Z,30.08
2022-11-23T22:59:15.908Z,30.48
2022-11-23T23:04:17.781Z,30.58
2022-11-23T23:09:19.535Z,30.40
2022-11-23T23:14:21.353Z,31.08
2022-11-23T23:19:23.478Z,30.00
2022-11-23T23:24:25.261Z,30.33
2022-11-23T23:29:27.095Z,28.75
2022-11-23T23:34:28.843Z,30.33
2022-11-23T23:39:30.652Z,29.90
2022-11-23T23:44:32.721Z,29.92
2022-11-23T23:49:34.752Z,29.30
2022-11-23T23:54:36.664Z,28.65
2022-11-23T23:59:38.497Z,27.75
